Terminal Aerodrome Forecast
Issued by NWS Green Bay, WI

Home | Current Version | Previous Version | Graphics & Text | Print | Product List | Glossary On
Versions: 1 2 3 4 5 6 7 8 9 10 11 12 13 14 15 16 17 18 19 20 21 22 23 24 25 26 27 28 29 30 31 32 33 34 35 36 37
000
FTUS43 KGRB 161400 AAA
TAFGRB
TAF AMD
KGRB 161432Z 1615/1712 36010G17KT 6SM -RA BR OVC012
      TEMPO 1615/1617 3SM -RA BR OVC008
     FM161700 33013G20KT 3SM -RAPLSN BR BKN008 OVC015
     FM161800 33015G22KT 2SM -SN BR SCT008 OVC015
      TEMPO 1700/1702 4SM -SN
     FM170200 31013G20KT P6SM -SN BKN020 OVC035=

USA.gov is the U.S. government's official web portal to all federal, state and local government web resources and services.